<?xml version="1.0" encoding="utf-8"?>
<gpx xmlns:xsi="http://www.w3.org/2001/XMLSchema-instance" xmlns:xsd="http://www.w3.org/2001/XMLSchema" version="1.1" creator="Shapelink.com" xmlns="http://www.topografix.com/GPX/1/1" xmlns:gpxtpx="http://www.garmin.com/xmlschemas/TrackPointExtension/v1">
  <metadata>
    <name>Gåing 3.74 km, 2012-07-18</name>
    <desc></desc>
    <author><name>Mikael Blom</name></author> 
    <time>2012-07-18T14:33:46Z</time>
  </metadata>
  <trk>
    <name>Gåing 3.74 km, 2012-07-18</name>
    <trkseg>
      <trkpt lat="59.9611487" lon="17.7176721">
        <ele>45.3192</ele>
        <time>2012-07-18T14:33:46Z</time>
      </trkpt>
      <trkpt lat="59.9611251" lon="17.7175594">
        <ele>44.358</ele>
        <time>2012-07-18T14:33:51Z</time>
      </trkpt>
      <trkpt lat="59.9611296" lon="17.7174176">
        <ele>42.916</ele>
        <time>2012-07-18T14:33:57Z</time>
      </trkpt>
      <trkpt lat="59.9611465" lon="17.7173926">
        <ele>42.916</ele>
        <time>2012-07-18T14:33:59Z</time>
      </trkpt>
      <trkpt lat="59.9611666" lon="17.7173675">
        <ele>42.916</ele>
        <time>2012-07-18T14:34:01Z</time>
      </trkpt>
      <trkpt lat="59.9612227" lon="17.7173692">
        <ele>42.4354</ele>
        <time>2012-07-18T14:34:06Z</time>
      </trkpt>
      <trkpt lat="59.9612596" lon="17.7173523">
        <ele>44.358</ele>
        <time>2012-07-18T14:34:10Z</time>
      </trkpt>
      <trkpt lat="59.9612919" lon="17.7173126">
        <ele>43.3966</ele>
        <time>2012-07-18T14:34:12Z</time>
      </trkpt>
      <trkpt lat="59.9613121" lon="17.7172198">
        <ele>43.8773</ele>
        <time>2012-07-18T14:34:15Z</time>
      </trkpt>
      <trkpt lat="59.9613564" lon="17.7171389">
        <ele>44.8386</ele>
        <time>2012-07-18T14:34:20Z</time>
      </trkpt>
      <trkpt lat="59.9613993" lon="17.7171518">
        <ele>45.3192</ele>
        <time>2012-07-18T14:34:24Z</time>
      </trkpt>
      <trkpt lat="59.9614579" lon="17.7171823">
        <ele>45.7999</ele>
        <time>2012-07-18T14:34:31Z</time>
      </trkpt>
      <trkpt lat="59.9614722" lon="17.7171892">
        <ele>46.2806</ele>
        <time>2012-07-18T14:34:32Z</time>
      </trkpt>
      <trkpt lat="59.961489" lon="17.7172394">
        <ele>47.2418</ele>
        <time>2012-07-18T14:34:35Z</time>
      </trkpt>
      <trkpt lat="59.9615106" lon="17.7173156">
        <ele>45.7999</ele>
        <time>2012-07-18T14:34:40Z</time>
      </trkpt>
      <trkpt lat="59.9615754" lon="17.7174511">
        <ele>47.2418</ele>
        <time>2012-07-18T14:34:47Z</time>
      </trkpt>
      <trkpt lat="59.9615854" lon="17.7174653">
        <ele>47.2418</ele>
        <time>2012-07-18T14:34:48Z</time>
      </trkpt>
      <trkpt lat="59.9616143" lon="17.7175074">
        <ele>47.2418</ele>
        <time>2012-07-18T14:34:50Z</time>
      </trkpt>
      <trkpt lat="59.9616611" lon="17.7176009">
        <ele>45.7999</ele>
        <time>2012-07-18T14:34:57Z</time>
      </trkpt>
      <trkpt lat="59.9616755" lon="17.7176264">
        <ele>47.7225</ele>
        <time>2012-07-18T14:35:00Z</time>
      </trkpt>
      <trkpt lat="59.9616768" lon="17.7175421">
        <ele>45.7999</ele>
        <time>2012-07-18T14:35:04Z</time>
      </trkpt>
      <trkpt lat="59.9616349" lon="17.7174333">
        <ele>44.358</ele>
        <time>2012-07-18T14:35:10Z</time>
      </trkpt>
      <trkpt lat="59.9615889" lon="17.7172732">
        <ele>43.8773</ele>
        <time>2012-07-18T14:35:16Z</time>
      </trkpt>
      <trkpt lat="59.9615962" lon="17.7172024">
        <ele>44.358</ele>
        <time>2012-07-18T14:35:21Z</time>
      </trkpt>
      <trkpt lat="59.9616046" lon="17.7170882">
        <ele>45.3192</ele>
        <time>2012-07-18T14:35:29Z</time>
      </trkpt>
      <trkpt lat="59.9616206" lon="17.7169882">
        <ele>45.3192</ele>
        <time>2012-07-18T14:35:34Z</time>
      </trkpt>
      <trkpt lat="59.9616511" lon="17.7169727">
        <ele>44.358</ele>
        <time>2012-07-18T14:35:38Z</time>
      </trkpt>
      <trkpt lat="59.961691" lon="17.7169826">
        <ele>45.7999</ele>
        <time>2012-07-18T14:35:44Z</time>
      </trkpt>
      <trkpt lat="59.9617003" lon="17.716864">
        <ele>48.684</ele>
        <time>2012-07-18T14:35:50Z</time>
      </trkpt>
      <trkpt lat="59.9617143" lon="17.7168398">
        <ele>48.684</ele>
        <time>2012-07-18T14:35:52Z</time>
      </trkpt>
      <trkpt lat="59.9617618" lon="17.7167775">
        <ele>48.684</ele>
        <time>2012-07-18T14:35:56Z</time>
      </trkpt>
      <trkpt lat="59.9618421" lon="17.7167888">
        <ele>49.1646</ele>
        <time>2012-07-18T14:36:03Z</time>
      </trkpt>
      <trkpt lat="59.9618805" lon="17.7168881">
        <ele>47.2418</ele>
        <time>2012-07-18T14:36:07Z</time>
      </trkpt>
      <trkpt lat="59.9619281" lon="17.7169531">
        <ele>45.7999</ele>
        <time>2012-07-18T14:36:11Z</time>
      </trkpt>
      <trkpt lat="59.9619719" lon="17.7170342">
        <ele>46.7612</ele>
        <time>2012-07-18T14:36:16Z</time>
      </trkpt>
      <trkpt lat="59.9620132" lon="17.7170959">
        <ele>48.684</ele>
        <time>2012-07-18T14:36:19Z</time>
      </trkpt>
      <trkpt lat="59.9620381" lon="17.7170652">
        <ele>51.0872</ele>
        <time>2012-07-18T14:36:23Z</time>
      </trkpt>
      <trkpt lat="59.9619964" lon="17.7169927">
        <ele>49.6453</ele>
        <time>2012-07-18T14:36:29Z</time>
      </trkpt>
      <trkpt lat="59.9619828" lon="17.7169492">
        <ele>48.684</ele>
        <time>2012-07-18T14:36:31Z</time>
      </trkpt>
      <trkpt lat="59.9619457" lon="17.7168395">
        <ele>47.2418</ele>
        <time>2012-07-18T14:36:36Z</time>
      </trkpt>
      <trkpt lat="59.9618978" lon="17.7167044">
        <ele>46.2806</ele>
        <time>2012-07-18T14:36:42Z</time>
      </trkpt>
      <trkpt lat="59.9618781" lon="17.7166207">
        <ele>45.3192</ele>
        <time>2012-07-18T14:36:45Z</time>
      </trkpt>
      <trkpt lat="59.9618915" lon="17.7164925">
        <ele>44.358</ele>
        <time>2012-07-18T14:36:50Z</time>
      </trkpt>
      <trkpt lat="59.961877" lon="17.7163537">
        <ele>44.358</ele>
        <time>2012-07-18T14:36:56Z</time>
      </trkpt>
      <trkpt lat="59.9618683" lon="17.7161775">
        <ele>45.3192</ele>
        <time>2012-07-18T14:37:02Z</time>
      </trkpt>
      <trkpt lat="59.9619013" lon="17.7160191">
        <ele>47.2418</ele>
        <time>2012-07-18T14:37:08Z</time>
      </trkpt>
      <trkpt lat="59.9619394" lon="17.71599">
        <ele>43.8773</ele>
        <time>2012-07-18T14:37:13Z</time>
      </trkpt>
      <trkpt lat="59.9619558" lon="17.7159461">
        <ele>41.9547</ele>
        <time>2012-07-18T14:37:16Z</time>
      </trkpt>
      <trkpt lat="59.9619686" lon="17.7158766">
        <ele>42.4354</ele>
        <time>2012-07-18T14:37:19Z</time>
      </trkpt>
      <trkpt lat="59.9619893" lon="17.7158267">
        <ele>41.9547</ele>
        <time>2012-07-18T14:37:22Z</time>
      </trkpt>
      <trkpt lat="59.9620375" lon="17.7156963">
        <ele>39.0707</ele>
        <time>2012-07-18T14:37:29Z</time>
      </trkpt>
      <trkpt lat="59.9620462" lon="17.7156766">
        <ele>39.0707</ele>
        <time>2012-07-18T14:37:30Z</time>
      </trkpt>
      <trkpt lat="59.9620964" lon="17.7155785">
        <ele>40.0321</ele>
        <time>2012-07-18T14:37:36Z</time>
      </trkpt>
      <trkpt lat="59.9621389" lon="17.7155228">
        <ele>40.9934</ele>
        <time>2012-07-18T14:37:40Z</time>
      </trkpt>
      <trkpt lat="59.9621581" lon="17.7155133">
        <ele>41.474</ele>
        <time>2012-07-18T14:37:42Z</time>
      </trkpt>
      <trkpt lat="59.9622216" lon="17.7153884">
        <ele>46.7612</ele>
        <time>2012-07-18T14:37:49Z</time>
      </trkpt>
      <trkpt lat="59.9622738" lon="17.7152145">
        <ele>49.6453</ele>
        <time>2012-07-18T14:37:56Z</time>
      </trkpt>
      <trkpt lat="59.9622913" lon="17.7150617">
        <ele>51.5679</ele>
        <time>2012-07-18T14:38:01Z</time>
      </trkpt>
      <trkpt lat="59.9623178" lon="17.7149475">
        <ele>52.5292</ele>
        <time>2012-07-18T14:38:06Z</time>
      </trkpt>
      <trkpt lat="59.9623302" lon="17.714915">
        <ele>53.0098</ele>
        <time>2012-07-18T14:38:08Z</time>
      </trkpt>
      <trkpt lat="59.9623555" lon="17.7147995">
        <ele>52.0486</ele>
        <time>2012-07-18T14:38:13Z</time>
      </trkpt>
      <trkpt lat="59.9623836" lon="17.7146753">
        <ele>48.2034</ele>
        <time>2012-07-18T14:38:19Z</time>
      </trkpt>
      <trkpt lat="59.962438" lon="17.7146435">
        <ele>44.358</ele>
        <time>2012-07-18T14:38:24Z</time>
      </trkpt>
      <trkpt lat="59.9625109" lon="17.7145898">
        <ele>40.5128</ele>
        <time>2012-07-18T14:38:30Z</time>
      </trkpt>
      <trkpt lat="59.9626011" lon="17.7145602">
        <ele>39.5513</ele>
        <time>2012-07-18T14:38:36Z</time>
      </trkpt>
      <trkpt lat="59.9626618" lon="17.7144666">
        <ele>37.6287</ele>
        <time>2012-07-18T14:38:43Z</time>
      </trkpt>
      <trkpt lat="59.9626965" lon="17.7144142">
        <ele>37.1481</ele>
        <time>2012-07-18T14:38:46Z</time>
      </trkpt>
      <trkpt lat="59.9627642" lon="17.7144221">
        <ele>35.7061</ele>
        <time>2012-07-18T14:38:51Z</time>
      </trkpt>
      <trkpt lat="59.9627771" lon="17.714421">
        <ele>35.7061</ele>
        <time>2012-07-18T14:38:52Z</time>
      </trkpt>
      <trkpt lat="59.9628217" lon="17.7143706">
        <ele>36.1868</ele>
        <time>2012-07-18T14:38:55Z</time>
      </trkpt>
      <trkpt lat="59.9628739" lon="17.7142847">
        <ele>37.6287</ele>
        <time>2012-07-18T14:39:00Z</time>
      </trkpt>
      <trkpt lat="59.9629258" lon="17.7141667">
        <ele>39.5513</ele>
        <time>2012-07-18T14:39:05Z</time>
      </trkpt>
      <trkpt lat="59.9629605" lon="17.7140996">
        <ele>40.5128</ele>
        <time>2012-07-18T14:39:08Z</time>
      </trkpt>
      <trkpt lat="59.963028" lon="17.713997">
        <ele>43.3966</ele>
        <time>2012-07-18T14:39:14Z</time>
      </trkpt>
      <trkpt lat="59.963061" lon="17.7139128">
        <ele>43.3966</ele>
        <time>2012-07-18T14:39:18Z</time>
      </trkpt>
      <trkpt lat="59.9630843" lon="17.7138652">
        <ele>42.916</ele>
        <time>2012-07-18T14:39:20Z</time>
      </trkpt>
      <trkpt lat="59.9631314" lon="17.7137886">
        <ele>41.474</ele>
        <time>2012-07-18T14:39:24Z</time>
      </trkpt>
      <trkpt lat="59.9631766" lon="17.7136971">
        <ele>40.9934</ele>
        <time>2012-07-18T14:39:28Z</time>
      </trkpt>
      <trkpt lat="59.9632426" lon="17.7135507">
        <ele>39.0707</ele>
        <time>2012-07-18T14:39:34Z</time>
      </trkpt>
      <trkpt lat="59.9633408" lon="17.7134221">
        <ele>35.7061</ele>
        <time>2012-07-18T14:39:41Z</time>
      </trkpt>
      <trkpt lat="59.9633657" lon="17.7133953">
        <ele>35.7061</ele>
        <time>2012-07-18T14:39:43Z</time>
      </trkpt>
      <trkpt lat="59.9634393" lon="17.7133352">
        <ele>33.7834</ele>
        <time>2012-07-18T14:39:48Z</time>
      </trkpt>
      <trkpt lat="59.9634916" lon="17.7133314">
        <ele>32.3416</ele>
        <time>2012-07-18T14:39:51Z</time>
      </trkpt>
      <trkpt lat="59.9635271" lon="17.713334">
        <ele>30.4188</ele>
        <time>2012-07-18T14:39:53Z</time>
      </trkpt>
      <trkpt lat="59.9636126" lon="17.7133361">
        <ele>26.0929</ele>
        <time>2012-07-18T14:39:58Z</time>
      </trkpt>
      <trkpt lat="59.9637481" lon="17.7133844">
        <ele>23.6896</ele>
        <time>2012-07-18T14:40:06Z</time>
      </trkpt>
      <trkpt lat="59.9638054" lon="17.7134238">
        <ele>22.2476</ele>
        <time>2012-07-18T14:40:11Z</time>
      </trkpt>
      <trkpt lat="59.9638749" lon="17.7134471">
        <ele>19.3638</ele>
        <time>2012-07-18T14:40:17Z</time>
      </trkpt>
      <trkpt lat="59.96389" lon="17.7133879">
        <ele>19.8444</ele>
        <time>2012-07-18T14:40:20Z</time>
      </trkpt>
      <trkpt lat="59.963921" lon="17.7133067">
        <ele>23.209</ele>
        <time>2012-07-18T14:40:22Z</time>
      </trkpt>
      <trkpt lat="59.963962" lon="17.7131051">
        <ele>25.1317</ele>
        <time>2012-07-18T14:40:26Z</time>
      </trkpt>
      <trkpt lat="59.9639661" lon="17.7130281">
        <ele>25.6123</ele>
        <time>2012-07-18T14:40:32Z</time>
      </trkpt>
      <trkpt lat="59.9639676" lon="17.7130218">
        <ele>25.1317</ele>
        <time>2012-07-18T14:40:33Z</time>
      </trkpt>
      <trkpt lat="59.9639298" lon="17.7129523">
        <ele>24.1703</ele>
        <time>2012-07-18T14:40:37Z</time>
      </trkpt>
      <trkpt lat="59.9638791" lon="17.7128648">
        <ele>22.7283</ele>
        <time>2012-07-18T14:40:42Z</time>
      </trkpt>
      <trkpt lat="59.9638356" lon="17.7128038">
        <ele>22.7283</ele>
        <time>2012-07-18T14:40:46Z</time>
      </trkpt>
      <trkpt lat="59.9637777" lon="17.7127653">
        <ele>21.767</ele>
        <time>2012-07-18T14:40:50Z</time>
      </trkpt>
      <trkpt lat="59.9637084" lon="17.7127255">
        <ele>21.2864</ele>
        <time>2012-07-18T14:40:54Z</time>
      </trkpt>
      <trkpt lat="59.9636459" lon="17.7125861">
        <ele>22.7283</ele>
        <time>2012-07-18T14:41:01Z</time>
      </trkpt>
      <trkpt lat="59.963635" lon="17.7125726">
        <ele>22.7283</ele>
        <time>2012-07-18T14:41:02Z</time>
      </trkpt>
      <trkpt lat="59.9635869" lon="17.7124152">
        <ele>20.325</ele>
        <time>2012-07-18T14:41:08Z</time>
      </trkpt>
      <trkpt lat="59.9635852" lon="17.7123147">
        <ele>20.325</ele>
        <time>2012-07-18T14:41:11Z</time>
      </trkpt>
      <trkpt lat="59.9636082" lon="17.7120902">
        <ele>18.8831</ele>
        <time>2012-07-18T14:41:17Z</time>
      </trkpt>
      <trkpt lat="59.9636237" lon="17.7118998">
        <ele>18.8831</ele>
        <time>2012-07-18T14:41:23Z</time>
      </trkpt>
      <trkpt lat="59.9636211" lon="17.7117488">
        <ele>18.4023</ele>
        <time>2012-07-18T14:41:28Z</time>
      </trkpt>
      <trkpt lat="59.9636026" lon="17.7116046">
        <ele>18.4023</ele>
        <time>2012-07-18T14:41:33Z</time>
      </trkpt>
      <trkpt lat="59.9635894" lon="17.7114579">
        <ele>19.8444</ele>
        <time>2012-07-18T14:41:38Z</time>
      </trkpt>
      <trkpt lat="59.9635512" lon="17.711261">
        <ele>20.8057</ele>
        <time>2012-07-18T14:41:45Z</time>
      </trkpt>
      <trkpt lat="59.9634864" lon="17.7111844">
        <ele>20.8057</ele>
        <time>2012-07-18T14:41:50Z</time>
      </trkpt>
      <trkpt lat="59.963432" lon="17.7110904">
        <ele>21.767</ele>
        <time>2012-07-18T14:41:56Z</time>
      </trkpt>
      <trkpt lat="59.9633971" lon="17.710886">
        <ele>21.767</ele>
        <time>2012-07-18T14:42:02Z</time>
      </trkpt>
      <trkpt lat="59.9633998" lon="17.7108483">
        <ele>21.2864</ele>
        <time>2012-07-18T14:42:03Z</time>
      </trkpt>
      <trkpt lat="59.9634016" lon="17.7107394">
        <ele>22.2476</ele>
        <time>2012-07-18T14:42:07Z</time>
      </trkpt>
      <trkpt lat="59.9634337" lon="17.7106116">
        <ele>24.1703</ele>
        <time>2012-07-18T14:42:12Z</time>
      </trkpt>
      <trkpt lat="59.9635196" lon="17.7104504">
        <ele>25.6123</ele>
        <time>2012-07-18T14:42:20Z</time>
      </trkpt>
      <trkpt lat="59.9635962" lon="17.7103065">
        <ele>25.1317</ele>
        <time>2012-07-18T14:42:27Z</time>
      </trkpt>
      <trkpt lat="59.9636651" lon="17.7102033">
        <ele>24.651</ele>
        <time>2012-07-18T14:42:33Z</time>
      </trkpt>
      <trkpt lat="59.9637169" lon="17.7101876">
        <ele>24.1703</ele>
        <time>2012-07-18T14:42:36Z</time>
      </trkpt>
      <trkpt lat="59.9638036" lon="17.7103193">
        <ele>22.2476</ele>
        <time>2012-07-18T14:42:43Z</time>
      </trkpt>
      <trkpt lat="59.9638164" lon="17.7103468">
        <ele>22.2476</ele>
        <time>2012-07-18T14:42:44Z</time>
      </trkpt>
      <trkpt lat="59.9639023" lon="17.7104894">
        <ele>19.3638</ele>
        <time>2012-07-18T14:42:50Z</time>
      </trkpt>
      <trkpt lat="59.9639107" lon="17.7105215">
        <ele>18.8831</ele>
        <time>2012-07-18T14:42:51Z</time>
      </trkpt>
      <trkpt lat="59.9639889" lon="17.7106368">
        <ele>17.9218</ele>
        <time>2012-07-18T14:42:57Z</time>
      </trkpt>
      <trkpt lat="59.9640361" lon="17.7107004">
        <ele>16.9604</ele>
        <time>2012-07-18T14:43:00Z</time>
      </trkpt>
      <trkpt lat="59.9640929" lon="17.7108219">
        <ele>18.4023</ele>
        <time>2012-07-18T14:43:06Z</time>
      </trkpt>
      <trkpt lat="59.9641635" lon="17.7109601">
        <ele>19.3638</ele>
        <time>2012-07-18T14:43:12Z</time>
      </trkpt>
      <trkpt lat="59.9642096" lon="17.7110259">
        <ele>20.325</ele>
        <time>2012-07-18T14:43:16Z</time>
      </trkpt>
      <trkpt lat="59.9642759" lon="17.711086">
        <ele>21.2864</ele>
        <time>2012-07-18T14:43:22Z</time>
      </trkpt>
      <trkpt lat="59.9642905" lon="17.7110939">
        <ele>21.767</ele>
        <time>2012-07-18T14:43:23Z</time>
      </trkpt>
      <trkpt lat="59.9643892" lon="17.7111878">
        <ele>23.6896</ele>
        <time>2012-07-18T14:43:30Z</time>
      </trkpt>
      <trkpt lat="59.9644748" lon="17.7112725">
        <ele>25.6123</ele>
        <time>2012-07-18T14:43:36Z</time>
      </trkpt>
      <trkpt lat="59.9645545" lon="17.7113455">
        <ele>28.0155</ele>
        <time>2012-07-18T14:43:42Z</time>
      </trkpt>
      <trkpt lat="59.9645955" lon="17.7113782">
        <ele>29.4575</ele>
        <time>2012-07-18T14:43:45Z</time>
      </trkpt>
      <trkpt lat="59.9646435" lon="17.7114419">
        <ele>29.4575</ele>
        <time>2012-07-18T14:43:49Z</time>
      </trkpt>
      <trkpt lat="59.9647343" lon="17.7115123">
        <ele>28.4962</ele>
        <time>2012-07-18T14:43:56Z</time>
      </trkpt>
      <trkpt lat="59.9648285" lon="17.7116093">
        <ele>27.0543</ele>
        <time>2012-07-18T14:44:04Z</time>
      </trkpt>
      <trkpt lat="59.9649337" lon="17.71172">
        <ele>24.651</ele>
        <time>2012-07-18T14:44:13Z</time>
      </trkpt>
      <trkpt lat="59.9650574" lon="17.7118313">
        <ele>25.1317</ele>
        <time>2012-07-18T14:44:22Z</time>
      </trkpt>
      <trkpt lat="59.9651486" lon="17.7119199">
        <ele>24.651</ele>
        <time>2012-07-18T14:44:29Z</time>
      </trkpt>
      <trkpt lat="59.9652108" lon="17.7119752">
        <ele>25.6123</ele>
        <time>2012-07-18T14:44:34Z</time>
      </trkpt>
      <trkpt lat="59.9652532" lon="17.7120059">
        <ele>25.6123</ele>
        <time>2012-07-18T14:44:37Z</time>
      </trkpt>
      <trkpt lat="59.9653487" lon="17.7120562">
        <ele>26.0929</ele>
        <time>2012-07-18T14:44:44Z</time>
      </trkpt>
      <trkpt lat="59.9654605" lon="17.7121651">
        <ele>26.5736</ele>
        <time>2012-07-18T14:44:52Z</time>
      </trkpt>
      <trkpt lat="59.9655132" lon="17.7122033">
        <ele>27.5349</ele>
        <time>2012-07-18T14:44:56Z</time>
      </trkpt>
      <trkpt lat="59.9655731" lon="17.7122537">
        <ele>28.4962</ele>
        <time>2012-07-18T14:45:00Z</time>
      </trkpt>
      <trkpt lat="59.9657114" lon="17.7123695">
        <ele>28.0155</ele>
        <time>2012-07-18T14:45:10Z</time>
      </trkpt>
      <trkpt lat="59.9658056" lon="17.7124483">
        <ele>28.0155</ele>
        <time>2012-07-18T14:45:17Z</time>
      </trkpt>
      <trkpt lat="59.9659014" lon="17.7125468">
        <ele>28.0155</ele>
        <time>2012-07-18T14:45:24Z</time>
      </trkpt>
      <trkpt lat="59.9660169" lon="17.7126134">
        <ele>27.0543</ele>
        <time>2012-07-18T14:45:32Z</time>
      </trkpt>
      <trkpt lat="59.9660516" lon="17.7125981">
        <ele>26.5736</ele>
        <time>2012-07-18T14:45:34Z</time>
      </trkpt>
      <trkpt lat="59.9661359" lon="17.7125312">
        <ele>25.6123</ele>
        <time>2012-07-18T14:45:40Z</time>
      </trkpt>
      <trkpt lat="59.9661721" lon="17.7124901">
        <ele>24.651</ele>
        <time>2012-07-18T14:45:43Z</time>
      </trkpt>
      <trkpt lat="59.9662574" lon="17.7123974">
        <ele>23.209</ele>
        <time>2012-07-18T14:45:50Z</time>
      </trkpt>
      <trkpt lat="59.9662912" lon="17.7123431">
        <ele>23.209</ele>
        <time>2012-07-18T14:45:53Z</time>
      </trkpt>
      <trkpt lat="59.9663351" lon="17.7122422">
        <ele>23.6896</ele>
        <time>2012-07-18T14:45:58Z</time>
      </trkpt>
      <trkpt lat="59.9664197" lon="17.7120793">
        <ele>24.1703</ele>
        <time>2012-07-18T14:46:06Z</time>
      </trkpt>
      <trkpt lat="59.9665049" lon="17.7119263">
        <ele>24.1703</ele>
        <time>2012-07-18T14:46:14Z</time>
      </trkpt>
      <trkpt lat="59.9665862" lon="17.7118138">
        <ele>24.1703</ele>
        <time>2012-07-18T14:46:21Z</time>
      </trkpt>
      <trkpt lat="59.9666276" lon="17.7117709">
        <ele>24.1703</ele>
        <time>2012-07-18T14:46:24Z</time>
      </trkpt>
      <trkpt lat="59.9667162" lon="17.7118216">
        <ele>24.1703</ele>
        <time>2012-07-18T14:46:30Z</time>
      </trkpt>
      <trkpt lat="59.9667435" lon="17.711873">
        <ele>24.651</ele>
        <time>2012-07-18T14:46:32Z</time>
      </trkpt>
      <trkpt lat="59.9667751" lon="17.7119708">
        <ele>24.651</ele>
        <time>2012-07-18T14:46:36Z</time>
      </trkpt>
      <trkpt lat="59.9668639" lon="17.7120862">
        <ele>26.5736</ele>
        <time>2012-07-18T14:46:41Z</time>
      </trkpt>
      <trkpt lat="59.9669234" lon="17.7122157">
        <ele>27.0543</ele>
        <time>2012-07-18T14:46:46Z</time>
      </trkpt>
      <trkpt lat="59.9669898" lon="17.7123754">
        <ele>26.5736</ele>
        <time>2012-07-18T14:46:52Z</time>
      </trkpt>
      <trkpt lat="59.9670363" lon="17.7125029">
        <ele>26.0929</ele>
        <time>2012-07-18T14:46:57Z</time>
      </trkpt>
      <trkpt lat="59.9670836" lon="17.7126788">
        <ele>25.1317</ele>
        <time>2012-07-18T14:47:03Z</time>
      </trkpt>
      <trkpt lat="59.9671171" lon="17.7128016">
        <ele>24.1703</ele>
        <time>2012-07-18T14:47:08Z</time>
      </trkpt>
      <trkpt lat="59.9671363" lon="17.712946">
        <ele>23.209</ele>
        <time>2012-07-18T14:47:14Z</time>
      </trkpt>
      <trkpt lat="59.967174" lon="17.7131646">
        <ele>21.767</ele>
        <time>2012-07-18T14:47:22Z</time>
      </trkpt>
      <trkpt lat="59.967175" lon="17.713196">
        <ele>21.767</ele>
        <time>2012-07-18T14:47:23Z</time>
      </trkpt>
      <trkpt lat="59.9672083" lon="17.7133839">
        <ele>18.4023</ele>
        <time>2012-07-18T14:47:30Z</time>
      </trkpt>
      <trkpt lat="59.9672341" lon="17.7134938">
        <ele>17.4412</ele>
        <time>2012-07-18T14:47:34Z</time>
      </trkpt>
      <trkpt lat="59.9672964" lon="17.7136088">
        <ele>15.999</ele>
        <time>2012-07-18T14:47:39Z</time>
      </trkpt>
      <trkpt lat="59.9673271" lon="17.7137316">
        <ele>15.0377</ele>
        <time>2012-07-18T14:47:43Z</time>
      </trkpt>
      <trkpt lat="59.967329" lon="17.7138634">
        <ele>14.0764</ele>
        <time>2012-07-18T14:47:47Z</time>
      </trkpt>
      <trkpt lat="59.9673397" lon="17.7139162">
        <ele>13.5958</ele>
        <time>2012-07-18T14:47:49Z</time>
      </trkpt>
      <trkpt lat="59.9673646" lon="17.7139895">
        <ele>13.1151</ele>
        <time>2012-07-18T14:47:52Z</time>
      </trkpt>
      <trkpt lat="59.9673648" lon="17.714165">
        <ele>15.0377</ele>
        <time>2012-07-18T14:47:57Z</time>
      </trkpt>
      <trkpt lat="59.9673819" lon="17.7143083">
        <ele>15.5184</ele>
        <time>2012-07-18T14:48:02Z</time>
      </trkpt>
      <trkpt lat="59.9674046" lon="17.7144224">
        <ele>16.9604</ele>
        <time>2012-07-18T14:48:06Z</time>
      </trkpt>
      <trkpt lat="59.9674258" lon="17.7145317">
        <ele>16.4797</ele>
        <time>2012-07-18T14:48:10Z</time>
      </trkpt>
      <trkpt lat="59.967445" lon="17.7146793">
        <ele>17.4412</ele>
        <time>2012-07-18T14:48:16Z</time>
      </trkpt>
      <trkpt lat="59.9674493" lon="17.7147077">
        <ele>18.4023</ele>
        <time>2012-07-18T14:48:17Z</time>
      </trkpt>
      <trkpt lat="59.9674539" lon="17.7148852">
        <ele>20.325</ele>
        <time>2012-07-18T14:48:23Z</time>
      </trkpt>
      <trkpt lat="59.9674693" lon="17.7150454">
        <ele>22.2476</ele>
        <time>2012-07-18T14:48:29Z</time>
      </trkpt>
      <trkpt lat="59.967461" lon="17.7151876">
        <ele>20.8057</ele>
        <time>2012-07-18T14:48:33Z</time>
      </trkpt>
      <trkpt lat="59.9674808" lon="17.7152943">
        <ele>19.3638</ele>
        <time>2012-07-18T14:48:38Z</time>
      </trkpt>
      <trkpt lat="59.9675097" lon="17.7154218">
        <ele>15.999</ele>
        <time>2012-07-18T14:48:43Z</time>
      </trkpt>
      <trkpt lat="59.9675217" lon="17.7154462">
        <ele>16.4797</ele>
        <time>2012-07-18T14:48:44Z</time>
      </trkpt>
      <trkpt lat="59.9675552" lon="17.715672">
        <ele>19.8444</ele>
        <time>2012-07-18T14:48:51Z</time>
      </trkpt>
      <trkpt lat="59.9675936" lon="17.7159316">
        <ele>20.8057</ele>
        <time>2012-07-18T14:48:59Z</time>
      </trkpt>
      <trkpt lat="59.9676337" lon="17.7161183">
        <ele>20.325</ele>
        <time>2012-07-18T14:49:05Z</time>
      </trkpt>
      <trkpt lat="59.9677024" lon="17.71625">
        <ele>21.2864</ele>
        <time>2012-07-18T14:49:11Z</time>
      </trkpt>
      <trkpt lat="59.9677631" lon="17.7164106">
        <ele>22.7283</ele>
        <time>2012-07-18T14:49:18Z</time>
      </trkpt>
      <trkpt lat="59.9678332" lon="17.7165464">
        <ele>24.651</ele>
        <time>2012-07-18T14:49:24Z</time>
      </trkpt>
      <trkpt lat="59.9679254" lon="17.7167508">
        <ele>26.0929</ele>
        <time>2012-07-18T14:49:34Z</time>
      </trkpt>
      <trkpt lat="59.9680142" lon="17.7169115">
        <ele>27.0543</ele>
        <time>2012-07-18T14:49:42Z</time>
      </trkpt>
      <trkpt lat="59.9680775" lon="17.7170141">
        <ele>27.5349</ele>
        <time>2012-07-18T14:49:48Z</time>
      </trkpt>
      <trkpt lat="59.9681464" lon="17.7170968">
        <ele>27.5349</ele>
        <time>2012-07-18T14:49:54Z</time>
      </trkpt>
      <trkpt lat="59.9682003" lon="17.7171501">
        <ele>28.0155</ele>
        <time>2012-07-18T14:49:58Z</time>
      </trkpt>
      <trkpt lat="59.9682179" lon="17.7171586">
        <ele>28.4962</ele>
        <time>2012-07-18T14:49:59Z</time>
      </trkpt>
      <trkpt lat="59.9683279" lon="17.7172428">
        <ele>28.4962</ele>
        <time>2012-07-18T14:50:07Z</time>
      </trkpt>
      <trkpt lat="59.9684557" lon="17.7173187">
        <ele>28.0155</ele>
        <time>2012-07-18T14:50:16Z</time>
      </trkpt>
      <trkpt lat="59.9685228" lon="17.7173695">
        <ele>27.5349</ele>
        <time>2012-07-18T14:50:21Z</time>
      </trkpt>
      <trkpt lat="59.9686178" lon="17.7174183">
        <ele>27.0543</ele>
        <time>2012-07-18T14:50:28Z</time>
      </trkpt>
      <trkpt lat="59.9687457" lon="17.717464">
        <ele>26.0929</ele>
        <time>2012-07-18T14:50:37Z</time>
      </trkpt>
      <trkpt lat="59.9688603" lon="17.71744">
        <ele>26.5736</ele>
        <time>2012-07-18T14:50:45Z</time>
      </trkpt>
      <trkpt lat="59.9689151" lon="17.7174067">
        <ele>26.5736</ele>
        <time>2012-07-18T14:50:49Z</time>
      </trkpt>
      <trkpt lat="59.9690374" lon="17.717344">
        <ele>26.0929</ele>
        <time>2012-07-18T14:50:57Z</time>
      </trkpt>
      <trkpt lat="59.9691654" lon="17.7173576">
        <ele>24.651</ele>
        <time>2012-07-18T14:51:05Z</time>
      </trkpt>
      <trkpt lat="59.9692771" lon="17.717375">
        <ele>25.6123</ele>
        <time>2012-07-18T14:51:12Z</time>
      </trkpt>
      <trkpt lat="59.9693776" lon="17.7173755">
        <ele>24.1703</ele>
        <time>2012-07-18T14:51:18Z</time>
      </trkpt>
      <trkpt lat="59.9694962" lon="17.7174242">
        <ele>23.6896</ele>
        <time>2012-07-18T14:51:26Z</time>
      </trkpt>
      <trkpt lat="59.969554" lon="17.7174543">
        <ele>24.1703</ele>
        <time>2012-07-18T14:51:30Z</time>
      </trkpt>
      <trkpt lat="59.9696247" lon="17.7175063">
        <ele>24.1703</ele>
        <time>2012-07-18T14:51:35Z</time>
      </trkpt>
      <trkpt lat="59.9697714" lon="17.7175985">
        <ele>26.0929</ele>
        <time>2012-07-18T14:51:45Z</time>
      </trkpt>
      <trkpt lat="59.9698981" lon="17.717722">
        <ele>26.5736</ele>
        <time>2012-07-18T14:51:54Z</time>
      </trkpt>
      <trkpt lat="59.9700568" lon="17.7178888">
        <ele>28.0155</ele>
        <time>2012-07-18T14:52:05Z</time>
      </trkpt>
      <trkpt lat="59.9701443" lon="17.7179525">
        <ele>28.9769</ele>
        <time>2012-07-18T14:52:11Z</time>
      </trkpt>
      <trkpt lat="59.9702533" lon="17.7180468">
        <ele>30.4188</ele>
        <time>2012-07-18T14:52:18Z</time>
      </trkpt>
      <trkpt lat="59.9703816" lon="17.7181717">
        <ele>30.8995</ele>
        <time>2012-07-18T14:52:27Z</time>
      </trkpt>
      <trkpt lat="59.9704937" lon="17.7182799">
        <ele>31.8607</ele>
        <time>2012-07-18T14:52:35Z</time>
      </trkpt>
      <trkpt lat="59.9706126" lon="17.718408">
        <ele>31.3801</ele>
        <time>2012-07-18T14:52:44Z</time>
      </trkpt>
      <trkpt lat="59.9706262" lon="17.7184232">
        <ele>31.3801</ele>
        <time>2012-07-18T14:52:45Z</time>
      </trkpt>
      <trkpt lat="59.9706898" lon="17.7184883">
        <ele>31.3801</ele>
        <time>2012-07-18T14:52:50Z</time>
      </trkpt>
      <trkpt lat="59.9707831" lon="17.7185713">
        <ele>31.3801</ele>
        <time>2012-07-18T14:52:56Z</time>
      </trkpt>
      <trkpt lat="59.9708707" lon="17.7186549">
        <ele>30.4188</ele>
        <time>2012-07-18T14:53:03Z</time>
      </trkpt>
      <trkpt lat="59.9709902" lon="17.7187624">
        <ele>30.4188</ele>
        <time>2012-07-18T14:53:12Z</time>
      </trkpt>
      <trkpt lat="59.9711136" lon="17.718868">
        <ele>31.8607</ele>
        <time>2012-07-18T14:53:21Z</time>
      </trkpt>
      <trkpt lat="59.9711987" lon="17.7189386">
        <ele>32.3416</ele>
        <time>2012-07-18T14:53:27Z</time>
      </trkpt>
      <trkpt lat="59.9713415" lon="17.7190556">
        <ele>33.7834</ele>
        <time>2012-07-18T14:53:37Z</time>
      </trkpt>
      <trkpt lat="59.9714591" lon="17.719152">
        <ele>35.2255</ele>
        <time>2012-07-18T14:53:45Z</time>
      </trkpt>
      <trkpt lat="59.9715468" lon="17.7192134">
        <ele>35.7061</ele>
        <time>2012-07-18T14:53:51Z</time>
      </trkpt>
      <trkpt lat="59.971654" lon="17.719309">
        <ele>35.2255</ele>
        <time>2012-07-18T14:53:59Z</time>
      </trkpt>
      <trkpt lat="59.9717379" lon="17.719391">
        <ele>34.7449</ele>
        <time>2012-07-18T14:54:06Z</time>
      </trkpt>
      <trkpt lat="59.9717591" lon="17.7194099">
        <ele>33.3029</ele>
        <time>2012-07-18T14:54:08Z</time>
      </trkpt>
      <trkpt lat="59.97184" lon="17.7194818">
        <ele>33.3029</ele>
        <time>2012-07-18T14:54:14Z</time>
      </trkpt>
      <trkpt lat="59.9719384" lon="17.7195835">
        <ele>32.8223</ele>
        <time>2012-07-18T14:54:22Z</time>
      </trkpt>
      <trkpt lat="59.9720122" lon="17.7196549">
        <ele>31.8607</ele>
        <time>2012-07-18T14:54:28Z</time>
      </trkpt>
      <trkpt lat="59.9720787" lon="17.7197217">
        <ele>31.3801</ele>
        <time>2012-07-18T14:54:34Z</time>
      </trkpt>
      <trkpt lat="59.9721538" lon="17.7197909">
        <ele>30.8995</ele>
        <time>2012-07-18T14:54:40Z</time>
      </trkpt>
      <trkpt lat="59.9722095" lon="17.7198326">
        <ele>31.3801</ele>
        <time>2012-07-18T14:54:44Z</time>
      </trkpt>
      <trkpt lat="59.9722983" lon="17.7199072">
        <ele>31.8607</ele>
        <time>2012-07-18T14:54:50Z</time>
      </trkpt>
      <trkpt lat="59.9724185" lon="17.7200166">
        <ele>31.8607</ele>
        <time>2012-07-18T14:54:59Z</time>
      </trkpt>
      <trkpt lat="59.9725573" lon="17.7201541">
        <ele>31.8607</ele>
        <time>2012-07-18T14:55:09Z</time>
      </trkpt>
      <trkpt lat="59.9726333" lon="17.7202295">
        <ele>31.8607</ele>
        <time>2012-07-18T14:55:15Z</time>
      </trkpt>
      <trkpt lat="59.9727205" lon="17.7203241">
        <ele>30.4188</ele>
        <time>2012-07-18T14:55:22Z</time>
      </trkpt>
      <trkpt lat="59.9728381" lon="17.7204511">
        <ele>30.4188</ele>
        <time>2012-07-18T14:55:31Z</time>
      </trkpt>
      <trkpt lat="59.972909" lon="17.7205462">
        <ele>30.4188</ele>
        <time>2012-07-18T14:55:36Z</time>
      </trkpt>
      <trkpt lat="59.9730074" lon="17.7206225">
        <ele>32.3416</ele>
        <time>2012-07-18T14:55:42Z</time>
      </trkpt>
      <trkpt lat="59.9731068" lon="17.7207427">
        <ele>33.3029</ele>
        <time>2012-07-18T14:55:50Z</time>
      </trkpt>
      <trkpt lat="59.9731785" lon="17.7208513">
        <ele>32.3416</ele>
        <time>2012-07-18T14:55:56Z</time>
      </trkpt>
      <trkpt lat="59.9732504" lon="17.7209594">
        <ele>31.8607</ele>
        <time>2012-07-18T14:56:02Z</time>
      </trkpt>
      <trkpt lat="59.9733317" lon="17.7210788">
        <ele>32.3416</ele>
        <time>2012-07-18T14:56:09Z</time>
      </trkpt>
      <trkpt lat="59.9734014" lon="17.7211787">
        <ele>32.3416</ele>
        <time>2012-07-18T14:56:15Z</time>
      </trkpt>
      <trkpt lat="59.9734571" lon="17.7212814">
        <ele>31.8607</ele>
        <time>2012-07-18T14:56:20Z</time>
      </trkpt>
      <trkpt lat="59.9735218" lon="17.7213652">
        <ele>31.8607</ele>
        <time>2012-07-18T14:56:25Z</time>
      </trkpt>
      <trkpt lat="59.9736061" lon="17.7214861">
        <ele>33.7834</ele>
        <time>2012-07-18T14:56:31Z</time>
      </trkpt>
      <trkpt lat="59.9736335" lon="17.7215735">
        <ele>33.7834</ele>
        <time>2012-07-18T14:56:35Z</time>
      </trkpt>
      <trkpt lat="59.9736804" lon="17.721715">
        <ele>31.3801</ele>
        <time>2012-07-18T14:56:41Z</time>
      </trkpt>
      <trkpt lat="59.973758" lon="17.7218622">
        <ele>29.9381</ele>
        <time>2012-07-18T14:56:47Z</time>
      </trkpt>
      <trkpt lat="59.9738003" lon="17.7219483">
        <ele>29.4575</ele>
        <time>2012-07-18T14:56:51Z</time>
      </trkpt>
      <trkpt lat="59.9738336" lon="17.7220896">
        <ele>28.0155</ele>
        <time>2012-07-18T14:56:57Z</time>
      </trkpt>
      <trkpt lat="59.9738508" lon="17.7221612">
        <ele>28.0155</ele>
        <time>2012-07-18T14:57:00Z</time>
      </trkpt>
      <trkpt lat="59.9739082" lon="17.7223988">
        <ele>27.5349</ele>
        <time>2012-07-18T14:57:09Z</time>
      </trkpt>
      <trkpt lat="59.9739594" lon="17.7226682">
        <ele>27.0543</ele>
        <time>2012-07-18T14:57:19Z</time>
      </trkpt>
      <trkpt lat="59.9740096" lon="17.7228883">
        <ele>27.5349</ele>
        <time>2012-07-18T14:57:27Z</time>
      </trkpt>
      <trkpt lat="59.9740337" lon="17.722993">
        <ele>27.5349</ele>
        <time>2012-07-18T14:57:31Z</time>
      </trkpt>
      <trkpt lat="59.97408" lon="17.7232269">
        <ele>27.5349</ele>
        <time>2012-07-18T14:57:39Z</time>
      </trkpt>
      <trkpt lat="59.9741127" lon="17.7234343">
        <ele>27.5349</ele>
        <time>2012-07-18T14:57:46Z</time>
      </trkpt>
      <trkpt lat="59.9741507" lon="17.7236903">
        <ele>27.0543</ele>
        <time>2012-07-18T14:57:55Z</time>
      </trkpt>
      <trkpt lat="59.9741611" lon="17.7237431">
        <ele>27.5349</ele>
        <time>2012-07-18T14:57:57Z</time>
      </trkpt>
      <trkpt lat="59.974177" lon="17.7239191">
        <ele>26.5736</ele>
        <time>2012-07-18T14:58:03Z</time>
      </trkpt>
      <trkpt lat="59.9742092" lon="17.7241502">
        <ele>27.0543</ele>
        <time>2012-07-18T14:58:11Z</time>
      </trkpt>
      <trkpt lat="59.9742391" lon="17.7243585">
        <ele>27.0543</ele>
        <time>2012-07-18T14:58:18Z</time>
      </trkpt>
      <trkpt lat="59.9742704" lon="17.7246247">
        <ele>24.651</ele>
        <time>2012-07-18T14:58:27Z</time>
      </trkpt>
      <trkpt lat="59.974303" lon="17.724847">
        <ele>23.6896</ele>
        <time>2012-07-18T14:58:35Z</time>
      </trkpt>
      <trkpt lat="59.9743352" lon="17.7250656">
        <ele>24.1703</ele>
        <time>2012-07-18T14:58:43Z</time>
      </trkpt>
      <trkpt lat="59.974353" lon="17.7252914">
        <ele>24.1703</ele>
        <time>2012-07-18T14:58:51Z</time>
      </trkpt>
      <trkpt lat="59.9743708" lon="17.7254995">
        <ele>23.6896</ele>
        <time>2012-07-18T14:58:58Z</time>
      </trkpt>
      <trkpt lat="59.9743807" lon="17.7255851">
        <ele>23.209</ele>
        <time>2012-07-18T14:59:01Z</time>
      </trkpt>
      <trkpt lat="59.9744009" lon="17.725774">
        <ele>21.767</ele>
        <time>2012-07-18T14:59:08Z</time>
      </trkpt>
      <trkpt lat="59.9744263" lon="17.7259699">
        <ele>20.325</ele>
        <time>2012-07-18T14:59:14Z</time>
      </trkpt>
      <trkpt lat="59.9744418" lon="17.7261291">
        <ele>20.8057</ele>
        <time>2012-07-18T14:59:19Z</time>
      </trkpt>
      <trkpt lat="59.974447" lon="17.7263144">
        <ele>21.2864</ele>
        <time>2012-07-18T14:59:26Z</time>
      </trkpt>
      <trkpt lat="59.9744371" lon="17.7264884">
        <ele>20.325</ele>
        <time>2012-07-18T14:59:32Z</time>
      </trkpt>
      <trkpt lat="59.9744378" lon="17.7266644">
        <ele>18.4023</ele>
        <time>2012-07-18T14:59:38Z</time>
      </trkpt>
      <trkpt lat="59.9744513" lon="17.7268722">
        <ele>18.8831</ele>
        <time>2012-07-18T14:59:44Z</time>
      </trkpt>
      <trkpt lat="59.9744587" lon="17.7269858">
        <ele>19.3638</ele>
        <time>2012-07-18T14:59:47Z</time>
      </trkpt>
      <trkpt lat="59.9744585" lon="17.7271075">
        <ele>20.8057</ele>
        <time>2012-07-18T14:59:52Z</time>
      </trkpt>
      <trkpt lat="59.9744444" lon="17.7272527">
        <ele>20.8057</ele>
        <time>2012-07-18T14:59:57Z</time>
      </trkpt>
      <trkpt lat="59.9744346" lon="17.7274269">
        <ele>19.8444</ele>
        <time>2012-07-18T15:00:03Z</time>
      </trkpt>
      <trkpt lat="59.9744677" lon="17.7276692">
        <ele>19.3638</ele>
        <time>2012-07-18T15:00:11Z</time>
      </trkpt>
      <trkpt lat="59.9744732" lon="17.727701">
        <ele>19.3638</ele>
        <time>2012-07-18T15:00:12Z</time>
      </trkpt>
      <trkpt lat="59.974477" lon="17.7278457">
        <ele>18.8831</ele>
        <time>2012-07-18T15:00:16Z</time>
      </trkpt>
      <trkpt lat="59.9744619" lon="17.7280145">
        <ele>18.8831</ele>
        <time>2012-07-18T15:00:22Z</time>
      </trkpt>
      <trkpt lat="59.9744597" lon="17.7280675">
        <ele>19.3638</ele>
        <time>2012-07-18T15:00:24Z</time>
      </trkpt>
      <trkpt lat="59.9744579" lon="17.7283381">
        <ele>18.8831</ele>
        <time>2012-07-18T15:00:33Z</time>
      </trkpt>
      <trkpt lat="59.9744518" lon="17.7285712">
        <ele>18.4023</ele>
        <time>2012-07-18T15:00:41Z</time>
      </trkpt>
      <trkpt lat="59.9744511" lon="17.7285989">
        <ele>18.4023</ele>
        <time>2012-07-18T15:00:42Z</time>
      </trkpt>
      <trkpt lat="59.9744671" lon="17.7289087">
        <ele>20.8057</ele>
        <time>2012-07-18T15:00:53Z</time>
      </trkpt>
      <trkpt lat="59.9744732" lon="17.7291521">
        <ele>22.7283</ele>
        <time>2012-07-18T15:01:01Z</time>
      </trkpt>
      <trkpt lat="59.9744787" lon="17.7292417">
        <ele>23.209</ele>
        <time>2012-07-18T15:01:04Z</time>
      </trkpt>
      <trkpt lat="59.9744696" lon="17.7294384">
        <ele>24.1703</ele>
        <time>2012-07-18T15:01:11Z</time>
      </trkpt>
      <trkpt lat="59.9744693" lon="17.7296559">
        <ele>24.1703</ele>
        <time>2012-07-18T15:01:18Z</time>
      </trkpt>
      <trkpt lat="59.9744615" lon="17.7299494">
        <ele>25.6123</ele>
        <time>2012-07-18T15:01:28Z</time>
      </trkpt>
      <trkpt lat="59.9744471" lon="17.7302203">
        <ele>27.5349</ele>
        <time>2012-07-18T15:01:37Z</time>
      </trkpt>
      <trkpt lat="59.9744194" lon="17.7304731">
        <ele>27.5349</ele>
        <time>2012-07-18T15:01:46Z</time>
      </trkpt>
      <trkpt lat="59.9744168" lon="17.7306417">
        <ele>28.0155</ele>
        <time>2012-07-18T15:01:52Z</time>
      </trkpt>
      <trkpt lat="59.9744164" lon="17.7307854">
        <ele>28.4962</ele>
        <time>2012-07-18T15:01:57Z</time>
      </trkpt>
      <trkpt lat="59.9744045" lon="17.730988">
        <ele>28.0155</ele>
        <time>2012-07-18T15:02:04Z</time>
      </trkpt>
      <trkpt lat="59.9743859" lon="17.7311625">
        <ele>26.0929</ele>
        <time>2012-07-18T15:02:10Z</time>
      </trkpt>
      <trkpt lat="59.9743781" lon="17.7312452">
        <ele>26.0929</ele>
        <time>2012-07-18T15:02:13Z</time>
      </trkpt>
      <trkpt lat="59.974378" lon="17.7314609">
        <ele>25.1317</ele>
        <time>2012-07-18T15:02:20Z</time>
      </trkpt>
      <trkpt lat="59.9743751" lon="17.7315541">
        <ele>24.1703</ele>
        <time>2012-07-18T15:02:23Z</time>
      </trkpt>
      <trkpt lat="59.9743738" lon="17.7318178">
        <ele>24.1703</ele>
        <time>2012-07-18T15:02:32Z</time>
      </trkpt>
      <trkpt lat="59.9743701" lon="17.7319209">
        <ele>23.6896</ele>
        <time>2012-07-18T15:02:36Z</time>
      </trkpt>
      <trkpt lat="59.9743667" lon="17.7320769">
        <ele>23.209</ele>
        <time>2012-07-18T15:02:42Z</time>
      </trkpt>
      <trkpt lat="59.9743677" lon="17.7321077">
        <ele>23.209</ele>
        <time>2012-07-18T15:02:43Z</time>
      </trkpt>
      <trkpt lat="59.9743741" lon="17.732405">
        <ele>23.6896</ele>
        <time>2012-07-18T15:02:53Z</time>
      </trkpt>
      <trkpt lat="59.9743815" lon="17.7324715">
        <ele>23.6896</ele>
        <time>2012-07-18T15:02:55Z</time>
      </trkpt>
      <trkpt lat="59.9744015" lon="17.7327367">
        <ele>25.1317</ele>
        <time>2012-07-18T15:03:03Z</time>
      </trkpt>
      <trkpt lat="59.9744088" lon="17.7328372">
        <ele>25.1317</ele>
        <time>2012-07-18T15:03:06Z</time>
      </trkpt>
      <trkpt lat="59.9743982" lon="17.7331877">
        <ele>25.1317</ele>
        <time>2012-07-18T15:03:18Z</time>
      </trkpt>
      <trkpt lat="59.974387" lon="17.7332709">
        <ele>24.651</ele>
        <time>2012-07-18T15:03:21Z</time>
      </trkpt>
      <trkpt lat="59.9743815" lon="17.7333445">
        <ele>24.651</ele>
        <time>2012-07-18T15:03:24Z</time>
      </trkpt>
      <trkpt lat="59.974365" lon="17.7335117">
        <ele>24.1703</ele>
        <time>2012-07-18T15:03:30Z</time>
      </trkpt>
      <trkpt lat="59.9743615" lon="17.7335416">
        <ele>23.6896</ele>
        <time>2012-07-18T15:03:31Z</time>
      </trkpt>
      <trkpt lat="59.9743535" lon="17.7337713">
        <ele>23.6896</ele>
        <time>2012-07-18T15:03:39Z</time>
      </trkpt>
      <trkpt lat="59.9743444" lon="17.7340044">
        <ele>24.1703</ele>
        <time>2012-07-18T15:03:47Z</time>
      </trkpt>
      <trkpt lat="59.9743345" lon="17.7342584">
        <ele>25.1317</ele>
        <time>2012-07-18T15:03:56Z</time>
      </trkpt>
      <trkpt lat="59.9743345" lon="17.7344668">
        <ele>26.0929</ele>
        <time>2012-07-18T15:04:03Z</time>
      </trkpt>
      <trkpt lat="59.974339" lon="17.7346135">
        <ele>26.5736</ele>
        <time>2012-07-18T15:04:08Z</time>
      </trkpt>
      <trkpt lat="59.974343" lon="17.7346456">
        <ele>26.5736</ele>
        <time>2012-07-18T15:04:09Z</time>
      </trkpt>
      <trkpt lat="59.974359" lon="17.7349429">
        <ele>27.5349</ele>
        <time>2012-07-18T15:04:19Z</time>
      </trkpt>
      <trkpt lat="59.974386" lon="17.735207">
        <ele>28.4962</ele>
        <time>2012-07-18T15:04:28Z</time>
      </trkpt>
      <trkpt lat="59.9744103" lon="17.7354158">
        <ele>29.4575</ele>
        <time>2012-07-18T15:04:35Z</time>
      </trkpt>
      <trkpt lat="59.974429" lon="17.7356431">
        <ele>28.9769</ele>
        <time>2012-07-18T15:04:43Z</time>
      </trkpt>
      <trkpt lat="59.9744528" lon="17.7358359">
        <ele>28.9769</ele>
        <time>2012-07-18T15:04:50Z</time>
      </trkpt>
      <trkpt lat="59.9744584" lon="17.7358681">
        <ele>28.9769</ele>
        <time>2012-07-18T15:04:51Z</time>
      </trkpt>
      <trkpt lat="59.9744769" lon="17.7359741">
        <ele>28.4962</ele>
        <time>2012-07-18T15:04:55Z</time>
      </trkpt>
      <trkpt lat="59.9745252" lon="17.7361576">
        <ele>29.4575</ele>
        <time>2012-07-18T15:05:02Z</time>
      </trkpt>
      <trkpt lat="59.9745822" lon="17.7363919">
        <ele>28.9769</ele>
        <time>2012-07-18T15:05:11Z</time>
      </trkpt>
      <trkpt lat="59.9746247" lon="17.736539">
        <ele>29.4575</ele>
        <time>2012-07-18T15:05:17Z</time>
      </trkpt>
      <trkpt lat="59.974684" lon="17.7367169">
        <ele>29.4575</ele>
        <time>2012-07-18T15:05:24Z</time>
      </trkpt>
      <trkpt lat="59.9747481" lon="17.7369149">
        <ele>30.4188</ele>
        <time>2012-07-18T15:05:31Z</time>
      </trkpt>
      <trkpt lat="59.9748282" lon="17.7370963">
        <ele>30.4188</ele>
        <time>2012-07-18T15:05:39Z</time>
      </trkpt>
      <trkpt lat="59.9749179" lon="17.7373045">
        <ele>30.8995</ele>
        <time>2012-07-18T15:05:48Z</time>
      </trkpt>
      <trkpt lat="59.9750355" lon="17.7375412">
        <ele>32.8223</ele>
        <time>2012-07-18T15:05:59Z</time>
      </trkpt>
      <trkpt lat="59.9751551" lon="17.7377111">
        <ele>36.1868</ele>
        <time>2012-07-18T15:06:08Z</time>
      </trkpt>
      <trkpt lat="59.9752203" lon="17.7378127">
        <ele>37.6287</ele>
        <time>2012-07-18T15:06:13Z</time>
      </trkpt>
      <trkpt lat="59.9753313" lon="17.7379829">
        <ele>39.5513</ele>
        <time>2012-07-18T15:06:22Z</time>
      </trkpt>
      <trkpt lat="59.9753829" lon="17.7380804">
        <ele>36.1868</ele>
        <time>2012-07-18T15:06:28Z</time>
      </trkpt>
      <trkpt lat="59.9754574" lon="17.7381922">
        <ele>35.7061</ele>
        <time>2012-07-18T15:06:33Z</time>
      </trkpt>
      <trkpt lat="59.9755012" lon="17.7382789">
        <ele>34.7449</ele>
        <time>2012-07-18T15:06:37Z</time>
      </trkpt>
      <trkpt lat="59.9755334" lon="17.738368">
        <ele>33.3029</ele>
        <time>2012-07-18T15:06:41Z</time>
      </trkpt>
      <trkpt lat="59.975598" lon="17.7384523">
        <ele>33.7834</ele>
        <time>2012-07-18T15:06:45Z</time>
      </trkpt>
      <trkpt lat="59.9756845" lon="17.7385776">
        <ele>33.7834</ele>
        <time>2012-07-18T15:06:51Z</time>
      </trkpt>
      <trkpt lat="59.9757653" lon="17.7387001">
        <ele>32.8223</ele>
        <time>2012-07-18T15:06:57Z</time>
      </trkpt>
      <trkpt lat="59.9758218" lon="17.7388046">
        <ele>30.8995</ele>
        <time>2012-07-18T15:07:03Z</time>
      </trkpt>
      <trkpt lat="59.9759012" lon="17.7389454">
        <ele>29.9381</ele>
        <time>2012-07-18T15:07:11Z</time>
      </trkpt>
      <trkpt lat="59.975999" lon="17.7390294">
        <ele>28.0155</ele>
        <time>2012-07-18T15:07:17Z</time>
      </trkpt>
      <trkpt lat="59.9760878" lon="17.7391165">
        <ele>25.6123</ele>
        <time>2012-07-18T15:07:23Z</time>
      </trkpt>
      <trkpt lat="59.9761481" lon="17.7392005">
        <ele>25.6123</ele>
        <time>2012-07-18T15:07:28Z</time>
      </trkpt>
      <trkpt lat="59.9761957" lon="17.7393336">
        <ele>26.0929</ele>
        <time>2012-07-18T15:07:34Z</time>
      </trkpt>
      <trkpt lat="59.9762529" lon="17.7394823">
        <ele>30.4188</ele>
        <time>2012-07-18T15:07:41Z</time>
      </trkpt>
      <trkpt lat="59.9763284" lon="17.7396008">
        <ele>34.2642</ele>
        <time>2012-07-18T15:07:47Z</time>
      </trkpt>
      <trkpt lat="59.976388" lon="17.7396846">
        <ele>36.6675</ele>
        <time>2012-07-18T15:07:52Z</time>
      </trkpt>
      <trkpt lat="59.9764522" lon="17.739752">
        <ele>37.1481</ele>
        <time>2012-07-18T15:07:58Z</time>
      </trkpt>
      <trkpt lat="59.9764885" lon="17.7396743">
        <ele>31.8607</ele>
        <time>2012-07-18T15:08:05Z</time>
      </trkpt>
      <trkpt lat="59.9765269" lon="17.7395178">
        <ele>30.8995</ele>
        <time>2012-07-18T15:08:13Z</time>
      </trkpt>
      <trkpt lat="59.9766019" lon="17.7394289">
        <ele>28.9769</ele>
        <time>2012-07-18T15:08:20Z</time>
      </trkpt>
      <trkpt lat="59.9766582" lon="17.739372">
        <ele>28.0155</ele>
        <time>2012-07-18T15:08:25Z</time>
      </trkpt>
      <trkpt lat="59.9766812" lon="17.7393448">
        <ele>28.0155</ele>
        <time>2012-07-18T15:08:27Z</time>
      </trkpt>
      <trkpt lat="59.9767335" lon="17.7393114">
        <ele>28.0155</ele>
        <time>2012-07-18T15:08:31Z</time>
      </trkpt>
      <trkpt lat="59.9768651" lon="17.7392704">
        <ele>28.9769</ele>
        <time>2012-07-18T15:08:40Z</time>
      </trkpt>
      <trkpt lat="59.9769676" lon="17.7392352">
        <ele>29.4575</ele>
        <time>2012-07-18T15:08:47Z</time>
      </trkpt>
      <trkpt lat="59.9770796" lon="17.7391923">
        <ele>29.9381</ele>
        <time>2012-07-18T15:08:54Z</time>
      </trkpt>
      <trkpt lat="59.9771593" lon="17.7391357">
        <ele>29.4575</ele>
        <time>2012-07-18T15:09:00Z</time>
      </trkpt>
      <trkpt lat="59.9772639" lon="17.7390916">
        <ele>29.4575</ele>
        <time>2012-07-18T15:09:07Z</time>
      </trkpt>
      <trkpt lat="59.9773256" lon="17.7390501">
        <ele>29.4575</ele>
        <time>2012-07-18T15:09:12Z</time>
      </trkpt>
      <trkpt lat="59.9773918" lon="17.7390011">
        <ele>28.9769</ele>
        <time>2012-07-18T15:09:17Z</time>
      </trkpt>
      <trkpt lat="59.9774695" lon="17.7389817">
        <ele>28.9769</ele>
        <time>2012-07-18T15:09:22Z</time>
      </trkpt>
      <trkpt lat="59.9775065" lon="17.7389972">
        <ele>28.9769</ele>
        <time>2012-07-18T15:09:24Z</time>
      </trkpt>
      <trkpt lat="59.9775688" lon="17.7389558">
        <ele>28.0155</ele>
        <time>2012-07-18T15:09:29Z</time>
      </trkpt>
      <trkpt lat="59.9776917" lon="17.73893">
        <ele>27.0543</ele>
        <time>2012-07-18T15:09:36Z</time>
      </trkpt>
      <trkpt lat="59.977796" lon="17.7389721">
        <ele>26.5736</ele>
        <time>2012-07-18T15:09:42Z</time>
      </trkpt>
      <trkpt lat="59.9778295" lon="17.7389911">
        <ele>27.0543</ele>
        <time>2012-07-18T15:09:44Z</time>
      </trkpt>
      <trkpt lat="59.9779508" lon="17.7390316">
        <ele>27.5349</ele>
        <time>2012-07-18T15:09:51Z</time>
      </trkpt>
      <trkpt lat="59.9779664" lon="17.7390477">
        <ele>27.5349</ele>
        <time>2012-07-18T15:09:52Z</time>
      </trkpt>
      <trkpt lat="59.9780449" lon="17.739106">
        <ele>28.0155</ele>
        <time>2012-07-18T15:09:57Z</time>
      </trkpt>
      <trkpt lat="59.9781143" lon="17.7391222">
        <ele>29.4575</ele>
        <time>2012-07-18T15:10:02Z</time>
      </trkpt>
      <trkpt lat="59.9781547" lon="17.7391394">
        <ele>31.8607</ele>
        <time>2012-07-18T15:10:05Z</time>
      </trkpt>
      <trkpt lat="59.9782694" lon="17.7391865">
        <ele>32.3416</ele>
        <time>2012-07-18T15:10:13Z</time>
      </trkpt>
      <trkpt lat="59.9783476" lon="17.7392056">
        <ele>32.8223</ele>
        <time>2012-07-18T15:10:18Z</time>
      </trkpt>
      <trkpt lat="59.978435" lon="17.7392227">
        <ele>34.2642</ele>
        <time>2012-07-18T15:10:23Z</time>
      </trkpt>
      <trkpt lat="59.9785086" lon="17.7392233">
        <ele>34.7449</ele>
        <time>2012-07-18T15:10:28Z</time>
      </trkpt>
      <trkpt lat="59.9785563" lon="17.7392351">
        <ele>35.2255</ele>
        <time>2012-07-18T15:10:31Z</time>
      </trkpt>
      <trkpt lat="59.9786097" lon="17.7392113">
        <ele>36.6675</ele>
        <time>2012-07-18T15:10:35Z</time>
      </trkpt>
      <trkpt lat="59.9786672" lon="17.7392372">
        <ele>35.7061</ele>
        <time>2012-07-18T15:10:39Z</time>
      </trkpt>
      <trkpt lat="59.9787009" lon="17.7392436">
        <ele>35.7061</ele>
        <time>2012-07-18T15:10:41Z</time>
      </trkpt>
      <trkpt lat="59.9787807" lon="17.7392374">
        <ele>35.7061</ele>
        <time>2012-07-18T15:10:46Z</time>
      </trkpt>
      <trkpt lat="59.9788153" lon="17.7392424">
        <ele>35.2255</ele>
        <time>2012-07-18T15:10:49Z</time>
      </trkpt>
      <trkpt lat="59.9789148" lon="17.7392177">
        <ele>37.1481</ele>
        <time>2012-07-18T15:10:55Z</time>
      </trkpt>
      <trkpt lat="59.979007" lon="17.7391738">
        <ele>36.1868</ele>
        <time>2012-07-18T15:11:01Z</time>
      </trkpt>
      <trkpt lat="59.9791032" lon="17.7391374">
        <ele>36.6675</ele>
        <time>2012-07-18T15:11:07Z</time>
      </trkpt>
      <trkpt lat="59.9792183" lon="17.7391087">
        <ele>35.7061</ele>
        <time>2012-07-18T15:11:15Z</time>
      </trkpt>
      <trkpt lat="59.9792905" lon="17.7390596">
        <ele>35.7061</ele>
        <time>2012-07-18T15:11:20Z</time>
      </trkpt>
      <trkpt lat="59.9793399" lon="17.7390426">
        <ele>35.7061</ele>
        <time>2012-07-18T15:11:24Z</time>
      </trkpt>
      <trkpt lat="59.9793101" lon="17.7390553">
        <ele>35.2255</ele>
        <time>2012-07-18T15:11:27Z</time>
      </trkpt>
      <trkpt lat="59.9792422" lon="17.7391274">
        <ele>34.2642</ele>
        <time>2012-07-18T15:11:32Z</time>
      </trkpt>
      <trkpt lat="59.9791587" lon="17.7392248">
        <ele>32.8223</ele>
        <time>2012-07-18T15:11:37Z</time>
      </trkpt>
      <trkpt lat="59.9791049" lon="17.739263">
        <ele>32.8223</ele>
        <time>2012-07-18T15:11:41Z</time>
      </trkpt>
      <trkpt lat="59.9790194" lon="17.7393041">
        <ele>32.8223</ele>
        <time>2012-07-18T15:11:47Z</time>
      </trkpt>
      <trkpt lat="59.9789402" lon="17.7393667">
        <ele>33.3029</ele>
        <time>2012-07-18T15:11:54Z</time>
      </trkpt>
      <trkpt lat="59.9789328" lon="17.7393803">
        <ele>33.3029</ele>
        <time>2012-07-18T15:11:55Z</time>
      </trkpt>
      <trkpt lat="59.9789755" lon="17.739489">
        <ele>35.2255</ele>
        <time>2012-07-18T15:12:00Z</time>
      </trkpt>
      <trkpt lat="59.9790049" lon="17.7395341">
        <ele>34.7449</ele>
        <time>2012-07-18T15:12:02Z</time>
      </trkpt>
      <trkpt lat="59.9790102" lon="17.7395873">
        <ele>34.7449</ele>
        <time>2012-07-18T15:12:04Z</time>
      </trkpt>
      <trkpt lat="59.9790077" lon="17.7397014">
        <ele>34.2642</ele>
        <time>2012-07-18T15:12:08Z</time>
      </trkpt>
      <trkpt lat="59.9789996" lon="17.739811">
        <ele>34.2642</ele>
        <time>2012-07-18T15:12:13Z</time>
      </trkpt>
      <trkpt lat="59.9789866" lon="17.7399011">
        <ele>32.8223</ele>
        <time>2012-07-18T15:12:16Z</time>
      </trkpt>
      <trkpt lat="59.9789652" lon="17.7399365">
        <ele>32.3416</ele>
        <time>2012-07-18T15:12:18Z</time>
      </trkpt>
    </trkseg>
  </trk>
</gpx>